This is the latest recevied weather packets stored in our database for station/object WX2P-13. If no packets are shown the sender has not sent any weather packets the latest 10 day(s).
| Time | Temp. | Humidity | Pressure | Rain* | Wind** | Luminosity | Snow |
|---|---|---|---|---|---|---|---|
| 1777954230 | 19.44° C | 82% | 1017.1 hPa | 0 mm | - | 0 W/m² | - |
| 1777953927 | 19.44° C | 82% | 1017 hPa | 0 mm | - | 0 W/m² | - |
| 1777953624 | 20° C | 82% | 1017.1 hPa | 0 mm | - | 0 W/m² | - |
| 1777943318 | 22.22° C | 73% | 1015.7 hPa | 0 mm | - | 0 W/m² | - |
| 1777942710 | 22.22° C | 71% | 1015.6 hPa | 0 mm | - | 0 W/m² | - |
| 1777941801 | 22.78° C | 73% | 1015.3 hPa | 0 mm | - | 0 W/m² | - |
| 1777939681 | 23.89° C | 66% | 1015.3 hPa | 0 mm | - | 0 W/m² | - |
| 1777939075 | 24.44° C | 64% | 1015.2 hPa | 0 mm | - | 5 W/m² | - |
| 1777938166 | 25° C | 61% | 1014.6 hPa | 0 mm | - | 16 W/m² | - |
| 1777934826 | 27.78° C | 45% | 1014.4 hPa | 0 mm | - | 65 W/m² | - |
| 1777934219 | 28.33° C | 44% | 1014.2 hPa | 0 mm | - | 74 W/m² | - |
| 1777931793 | 28.33° C | 44% | 1014.7 hPa | 0 mm | - | 39 W/m² | - |
| 1777929670 | 28.89° C | 34% | 1014.6 hPa | 0 mm | - | 60 W/m² | - |
| 1777929367 | 28.89° C | 34% | 1014.5 hPa | 0 mm | - | 72 W/m² | - |
| 1777927250 | 28.89° C | 37% | 1015 hPa | 0 mm | - | 71 W/m² | - |
| 1777925734 | 29.44° C | 37% | 1014.8 hPa | 0 mm | - | 69 W/m² | - |
| 1777924825 | 28.89° C | 35% | 1015.1 hPa | 0 mm | - | 53 W/m² | - |
| 1777921490 | 29.44° C | 38% | 1015.9 hPa | 0 mm | - | 62 W/m² | - |
| 1777919669 | 28.89° C | 38% | 1016.4 hPa | 0 mm | - | 67 W/m² | - |
| 1777919367 | 28.33° C | 37% | 1016.5 hPa | 0 mm | - | 360 W/m² | - |
| 1777918458 | 28.89° C | 39% | 1016.5 hPa | 0 mm | - | 432 W/m² | - |
| 1777918157 | 28.33° C | 39% | 1016.6 hPa | 0 mm | - | 501 W/m² | - |
| 1777917855 | 28.89° C | 39% | 1016.5 hPa | 0 mm | - | 707 W/m² | - |
| 1777917553 | 28.33° C | 39% | 1016.5 hPa | 0 mm | - | 688 W/m² | - |
| 1777916645 | 28.33° C | 41% | 1016.8 hPa | 0 mm | - | 679 W/m² | - |
* Rain latest hour (hover to see other rain measurements)
** Current wind speed in m/s (hover to see current wind gust speed)